sensor_id;sensor_type;location;lat;lon;timestamp;P1;durP1;ratioP1;P2;durP2;ratioP2
15112;SDS011;7657;50.140;7.076;2023-10-08T00:02:22;8.40;;;4.50;;
15112;SDS011;7657;50.140;7.076;2023-10-08T00:04:51;5.72;;;4.10;;
15112;SDS011;7657;50.140;7.076;2023-10-08T00:07:19;7.28;;;3.90;;
15112;SDS011;7657;50.140;7.076;2023-10-08T00:09:47;6.32;;;4.35;;
15112;SDS011;7657;50.140;7.076;2023-10-08T00:12:16;9.65;;;4.32;;
15112;SDS011;7657;50.140;7.076;2023-10-08T00:14:43;5.85;;;4.20;;
15112;SDS011;7657;50.140;7.076;2023-10-08T00:17:12;7.28;;;4.85;;
15112;SDS011;7657;50.140;7.076;2023-10-08T00:19:39;7.32;;;4.50;;
15112;SDS011;7657;50.140;7.076;2023-10-08T00:22:08;6.78;;;3.97;;
15112;SDS011;7657;50.140;7.076;2023-10-08T00:24:36;6.45;;;4.35;;
15112;SDS011;7657;50.140;7.076;2023-10-08T00:27:06;6.15;;;4.47;;
15112;SDS011;7657;50.140;7.076;2023-10-08T00:29:34;8.57;;;4.15;;
15112;SDS011;7657;50.140;7.076;2023-10-08T00:32:04;10.05;;;4.72;;
15112;SDS011;7657;50.140;7.076;2023-10-08T00:34:38;7.53;;;4.80;;
15112;SDS011;7657;50.140;7.076;2023-10-08T00:37:08;6.95;;;4.50;;
15112;SDS011;7657;50.140;7.076;2023-10-08T00:39:36;8.30;;;4.68;;
15112;SDS011;7657;50.140;7.076;2023-10-08T00:42:05;7.55;;;4.68;;
15112;SDS011;7657;50.140;7.076;2023-10-08T00:44:33;6.20;;;4.25;;
15112;SDS011;7657;50.140;7.076;2023-10-08T00:47:06;7.53;;;4.63;;
15112;SDS011;7657;50.140;7.076;2023-10-08T00:49:37;7.63;;;4.70;;
15112;SDS011;7657;50.140;7.076;2023-10-08T00:52:13;7.35;;;4.30;;
15112;SDS011;7657;50.140;7.076;2023-10-08T00:54:55;7.38;;;4.57;;
15112;SDS011;7657;50.140;7.076;2023-10-08T00:57:34;6.35;;;4.45;;
15112;SDS011;7657;50.140;7.076;2023-10-08T01:00:07;6.88;;;4.82;;
15112;SDS011;7657;50.140;7.076;2023-10-08T01:02:41;7.50;;;4.72;;
15112;SDS011;7657;50.140;7.076;2023-10-08T01:05:15;8.43;;;5.07;;
15112;SDS011;7657;50.140;7.076;2023-10-08T01:07:48;7.07;;;4.55;;
15112;SDS011;7657;50.140;7.076;2023-10-08T01:10:16;8.77;;;4.85;;
15112;SDS011;7657;50.140;7.076;2023-10-08T01:12:46;7.30;;;4.78;;
15112;SDS011;7657;50.140;7.076;2023-10-08T01:15:29;8.38;;;4.55;;
15112;SDS011;7657;50.140;7.076;2023-10-08T01:18:00;6.63;;;4.50;;
15112;SDS011;7657;50.140;7.076;2023-10-08T01:20:31;6.90;;;4.53;;
15112;SDS011;7657;50.140;7.076;2023-10-08T01:23:03;9.32;;;5.22;;
15112;SDS011;7657;50.140;7.076;2023-10-08T01:25:34;6.88;;;5.10;;
15112;SDS011;7657;50.140;7.076;2023-10-08T01:28:05;7.82;;;4.97;;
15112;SDS011;7657;50.140;7.076;2023-10-08T01:30:40;10.52;;;5.05;;
15112;SDS011;7657;50.140;7.076;2023-10-08T01:33:11;8.75;;;4.95;;
15112;SDS011;7657;50.140;7.076;2023-10-08T01:35:39;8.02;;;5.15;;
15112;SDS011;7657;50.140;7.076;2023-10-08T01:38:08;7.95;;;5.47;;
15112;SDS011;7657;50.140;7.076;2023-10-08T01:40:38;7.38;;;5.30;;
15112;SDS011;7657;50.140;7.076;2023-10-08T01:43:06;7.53;;;5.30;;
15112;SDS011;7657;50.140;7.076;2023-10-08T01:45:35;9.30;;;5.25;;
15112;SDS011;7657;50.140;7.076;2023-10-08T01:48:06;8.90;;;5.47;;
15112;SDS011;7657;50.140;7.076;2023-10-08T01:50:34;8.68;;;5.40;;
15112;SDS011;7657;50.140;7.076;2023-10-08T01:53:01;8.65;;;6.05;;
15112;SDS011;7657;50.140;7.076;2023-10-08T01:55:32;12.27;;;5.90;;
15112;SDS011;7657;50.140;7.076;2023-10-08T01:58:10;10.13;;;5.70;;
15112;SDS011;7657;50.140;7.076;2023-10-08T02:00:41;11.45;;;6.13;;
15112;SDS011;7657;50.140;7.076;2023-10-08T02:03:10;10.13;;;6.20;;
15112;SDS011;7657;50.140;7.076;2023-10-08T02:05:38;8.40;;;5.68;;
15112;SDS011;7657;50.140;7.076;2023-10-08T02:08:07;9.93;;;5.95;;
15112;SDS011;7657;50.140;7.076;2023-10-08T02:10:36;8.63;;;5.60;;
15112;SDS011;7657;50.140;7.076;2023-10-08T02:13:05;8.90;;;5.10;;
15112;SDS011;7657;50.140;7.076;2023-10-08T02:15:33;9.93;;;5.70;;
15112;SDS011;7657;50.140;7.076;2023-10-08T02:18:01;9.50;;;5.80;;
15112;SDS011;7657;50.140;7.076;2023-10-08T02:20:28;8.35;;;6.07;;
15112;SDS011;7657;50.140;7.076;2023-10-08T02:22:55;10.18;;;6.50;;
15112;SDS011;7657;50.140;7.076;2023-10-08T02:25:22;8.73;;;5.80;;
15112;SDS011;7657;50.140;7.076;2023-10-08T02:27:51;9.77;;;5.93;;
15112;SDS011;7657;50.140;7.076;2023-10-08T02:30:18;9.48;;;6.45;;
15112;SDS011;7657;50.140;7.076;2023-10-08T02:32:45;9.88;;;5.95;;
15112;SDS011;7657;50.140;7.076;2023-10-08T02:35:12;10.93;;;6.40;;
15112;SDS011;7657;50.140;7.076;2023-10-08T02:37:39;10.48;;;6.40;;
15112;SDS011;7657;50.140;7.076;2023-10-08T02:40:07;9.68;;;6.50;;
15112;SDS011;7657;50.140;7.076;2023-10-08T02:42:42;10.05;;;6.25;;
15112;SDS011;7657;50.140;7.076;2023-10-08T02:45:12;8.82;;;6.22;;
15112;SDS011;7657;50.140;7.076;2023-10-08T02:47:40;10.35;;;6.63;;
15112;SDS011;7657;50.140;7.076;2023-10-08T02:50:10;9.20;;;6.40;;
15112;SDS011;7657;50.140;7.076;2023-10-08T02:52:41;10.27;;;6.60;;
15112;SDS011;7657;50.140;7.076;2023-10-08T02:55:09;11.18;;;6.53;;
15112;SDS011;7657;50.140;7.076;2023-10-08T02:57:48;11.38;;;5.88;;
15112;SDS011;7657;50.140;7.076;2023-10-08T03:00:18;8.95;;;6.15;;
15112;SDS011;7657;50.140;7.076;2023-10-08T03:02:45;10.55;;;6.15;;
15112;SDS011;7657;50.140;7.076;2023-10-08T03:05:12;11.48;;;6.07;;
15112;SDS011;7657;50.140;7.076;2023-10-08T03:07:42;10.52;;;6.82;;
15112;SDS011;7657;50.140;7.076;2023-10-08T03:10:09;9.98;;;6.25;;
15112;SDS011;7657;50.140;7.076;2023-10-08T03:12:43;12.82;;;6.63;;
15112;SDS011;7657;50.140;7.076;2023-10-08T03:15:11;8.65;;;6.10;;
15112;SDS011;7657;50.140;7.076;2023-10-08T03:17:54;10.25;;;6.50;;
15112;SDS011;7657;50.140;7.076;2023-10-08T03:20:22;10.68;;;6.35;;
15112;SDS011;7657;50.140;7.076;2023-10-08T03:23:03;8.77;;;6.35;;
15112;SDS011;7657;50.140;7.076;2023-10-08T03:25:37;8.90;;;5.97;;
15112;SDS011;7657;50.140;7.076;2023-10-08T03:28:06;9.60;;;5.97;;
15112;SDS011;7657;50.140;7.076;2023-10-08T03:30:37;8.75;;;5.40;;
15112;SDS011;7657;50.140;7.076;2023-10-08T03:33:15;8.20;;;5.90;;
15112;SDS011;7657;50.140;7.076;2023-10-08T03:35:47;9.48;;;5.70;;
15112;SDS011;7657;50.140;7.076;2023-10-08T03:38:17;8.38;;;5.50;;
15112;SDS011;7657;50.140;7.076;2023-10-08T03:40:47;7.53;;;5.53;;
15112;SDS011;7657;50.140;7.076;2023-10-08T03:43:15;8.68;;;5.32;;
15112;SDS011;7657;50.140;7.076;2023-10-08T03:45:49;8.05;;;5.30;;
15112;SDS011;7657;50.140;7.076;2023-10-08T03:48:20;7.68;;;5.57;;
15112;SDS011;7657;50.140;7.076;2023-10-08T03:50:47;8.93;;;5.63;;
15112;SDS011;7657;50.140;7.076;2023-10-08T03:53:22;8.63;;;5.25;;
15112;SDS011;7657;50.140;7.076;2023-10-08T03:55:49;7.68;;;5.57;;
15112;SDS011;7657;50.140;7.076;2023-10-08T03:58:19;7.68;;;5.03;;
15112;SDS011;7657;50.140;7.076;2023-10-08T04:00:54;10.75;;;5.82;;
15112;SDS011;7657;50.140;7.076;2023-10-08T04:03:34;7.32;;;5.20;;
15112;SDS011;7657;50.140;7.076;2023-10-08T04:06:23;8.38;;;5.45;;
15112;SDS011;7657;50.140;7.076;2023-10-08T04:08:55;9.45;;;5.63;;
15112;SDS011;7657;50.140;7.076;2023-10-08T04:11:36;9.20;;;5.95;;
15112;SDS011;7657;50.140;7.076;2023-10-08T04:14:17;7.97;;;5.75;;
15112;SDS011;7657;50.140;7.076;2023-10-08T04:16:44;9.45;;;6.60;;
15112;SDS011;7657;50.140;7.076;2023-10-08T04:19:18;9.52;;;7.13;;
15112;SDS011;7657;50.140;7.076;2023-10-08T04:21:50;11.25;;;6.82;;
15112;SDS011;7657;50.140;7.076;2023-10-08T04:24:20;10.88;;;6.75;;
15112;SDS011;7657;50.140;7.076;2023-10-08T04:26:54;10.15;;;6.57;;
15112;SDS011;7657;50.140;7.076;2023-10-08T04:29:22;11.60;;;7.25;;
15112;SDS011;7657;50.140;7.076;2023-10-08T04:31:51;9.82;;;7.00;;
15112;SDS011;7657;50.140;7.076;2023-10-08T04:34:28;8.55;;;6.55;;
15112;SDS011;7657;50.140;7.076;2023-10-08T04:36:55;10.30;;;6.25;;
15112;SDS011;7657;50.140;7.076;2023-10-08T04:39:26;9.43;;;6.50;;
15112;SDS011;7657;50.140;7.076;2023-10-08T04:41:58;8.20;;;6.10;;
15112;SDS011;7657;50.140;7.076;2023-10-08T04:44:31;12.10;;;6.18;;
15112;SDS011;7657;50.140;7.076;2023-10-08T04:46:58;9.80;;;6.70;;
15112;SDS011;7657;50.140;7.076;2023-10-08T04:49:31;8.23;;;6.07;;
15112;SDS011;7657;50.140;7.076;2023-10-08T04:52:00;9.05;;;6.65;;
15112;SDS011;7657;50.140;7.076;2023-10-08T04:54:30;10.85;;;7.25;;
15112;SDS011;7657;50.140;7.076;2023-10-08T04:56:58;8.68;;;6.32;;
15112;SDS011;7657;50.140;7.076;2023-10-08T04:59:26;10.30;;;6.30;;
15112;SDS011;7657;50.140;7.076;2023-10-08T05:01:59;8.20;;;6.55;;
15112;SDS011;7657;50.140;7.076;2023-10-08T05:04:46;9.90;;;6.75;;
15112;SDS011;7657;50.140;7.076;2023-10-08T05:07:46;10.15;;;6.53;;
15112;SDS011;7657;50.140;7.076;2023-10-08T05:10:42;10.68;;;7.18;;
15112;SDS011;7657;50.140;7.076;2023-10-08T05:13:49;9.13;;;6.47;;
15112;SDS011;7657;50.140;7.076;2023-10-08T05:16:26;10.65;;;6.43;;
15112;SDS011;7657;50.140;7.076;2023-10-08T05:19:08;8.25;;;6.00;;
15112;SDS011;7657;50.140;7.076;2023-10-08T05:21:54;9.50;;;6.10;;
15112;SDS011;7657;50.140;7.076;2023-10-08T05:24:42;10.77;;;6.32;;
15112;SDS011;7657;50.140;7.076;2023-10-08T05:27:16;11.18;;;6.50;;
15112;SDS011;7657;50.140;7.076;2023-10-08T05:30:22;9.13;;;6.47;;
15112;SDS011;7657;50.140;7.076;2023-10-08T05:33:03;8.60;;;6.45;;
15112;SDS011;7657;50.140;7.076;2023-10-08T05:35:50;7.10;;;5.82;;
15112;SDS011;7657;50.140;7.076;2023-10-08T05:38:29;10.35;;;6.43;;
15112;SDS011;7657;50.140;7.076;2023-10-08T05:41:14;11.35;;;7.03;;
15112;SDS011;7657;50.140;7.076;2023-10-08T05:43:53;11.23;;;6.90;;
15112;SDS011;7657;50.140;7.076;2023-10-08T05:46:38;9.93;;;6.68;;
15112;SDS011;7657;50.140;7.076;2023-10-08T05:49:31;11.98;;;6.40;;
15112;SDS011;7657;50.140;7.076;2023-10-08T05:52:07;10.30;;;6.65;;
15112;SDS011;7657;50.140;7.076;2023-10-08T05:55:07;10.50;;;7.03;;
15112;SDS011;7657;50.140;7.076;2023-10-08T05:57:46;9.18;;;6.53;;
15112;SDS011;7657;50.140;7.076;2023-10-08T06:00:17;11.57;;;6.95;;
15112;SDS011;7657;50.140;7.076;2023-10-08T06:03:01;11.10;;;7.82;;
15112;SDS011;7657;50.140;7.076;2023-10-08T06:05:36;10.82;;;7.50;;
15112;SDS011;7657;50.140;7.076;2023-10-08T06:08:12;13.52;;;8.60;;
15112;SDS011;7657;50.140;7.076;2023-10-08T06:10:41;11.38;;;8.57;;
15112;SDS011;7657;50.140;7.076;2023-10-08T06:13:10;11.90;;;8.15;;
15112;SDS011;7657;50.140;7.076;2023-10-08T06:15:41;11.70;;;9.00;;
15112;SDS011;7657;50.140;7.076;2023-10-08T06:18:13;13.43;;;8.57;;
15112;SDS011;7657;50.140;7.076;2023-10-08T06:20:40;12.00;;;8.82;;
15112;SDS011;7657;50.140;7.076;2023-10-08T06:23:09;14.55;;;8.60;;
15112;SDS011;7657;50.140;7.076;2023-10-08T06:25:37;12.70;;;8.90;;
15112;SDS011;7657;50.140;7.076;2023-10-08T06:28:13;11.73;;;8.75;;
15112;SDS011;7657;50.140;7.076;2023-10-08T06:30:44;15.90;;;9.07;;
15112;SDS011;7657;50.140;7.076;2023-10-08T06:33:11;11.52;;;8.35;;
15112;SDS011;7657;50.140;7.076;2023-10-08T06:35:38;11.50;;;8.23;;
15112;SDS011;7657;50.140;7.076;2023-10-08T06:38:09;10.27;;;7.72;;
15112;SDS011;7657;50.140;7.076;2023-10-08T06:40:39;10.48;;;7.32;;
15112;SDS011;7657;50.140;7.076;2023-10-08T06:43:09;8.75;;;6.90;;
15112;SDS011;7657;50.140;7.076;2023-10-08T06:45:51;9.60;;;7.47;;
15112;SDS011;7657;50.140;7.076;2023-10-08T06:48:23;10.93;;;7.38;;
15112;SDS011;7657;50.140;7.076;2023-10-08T06:50:54;7.93;;;6.07;;
15112;SDS011;7657;50.140;7.076;2023-10-08T06:53:22;10.95;;;7.00;;
15112;SDS011;7657;50.140;7.076;2023-10-08T06:55:49;12.43;;;7.50;;
15112;SDS011;7657;50.140;7.076;2023-10-08T06:58:21;10.45;;;6.88;;
15112;SDS011;7657;50.140;7.076;2023-10-08T07:00:51;8.18;;;6.40;;
15112;SDS011;7657;50.140;7.076;2023-10-08T07:03:23;8.40;;;6.35;;
15112;SDS011;7657;50.140;7.076;2023-10-08T07:05:51;7.68;;;5.65;;
15112;SDS011;7657;50.140;7.076;2023-10-08T07:08:23;10.02;;;6.53;;
15112;SDS011;7657;50.140;7.076;2023-10-08T07:10:52;8.73;;;6.78;;
15112;SDS011;7657;50.140;7.076;2023-10-08T07:13:21;8.38;;;6.57;;
15112;SDS011;7657;50.140;7.076;2023-10-08T07:15:51;8.65;;;6.07;;
15112;SDS011;7657;50.140;7.076;2023-10-08T07:18:18;7.95;;;6.30;;
15112;SDS011;7657;50.140;7.076;2023-10-08T07:20:50;9.30;;;6.43;;
15112;SDS011;7657;50.140;7.076;2023-10-08T07:23:19;9.40;;;6.50;;
15112;SDS011;7657;50.140;7.076;2023-10-08T07:25:53;8.48;;;5.78;;
15112;SDS011;7657;50.140;7.076;2023-10-08T07:28:24;10.15;;;6.40;;
15112;SDS011;7657;50.140;7.076;2023-10-08T07:30:53;10.95;;;6.97;;
15112;SDS011;7657;50.140;7.076;2023-10-08T07:33:20;8.27;;;6.85;;
15112;SDS011;7657;50.140;7.076;2023-10-08T07:35:50;8.55;;;6.38;;
15112;SDS011;7657;50.140;7.076;2023-10-08T07:38:22;10.13;;;6.65;;
15112;SDS011;7657;50.140;7.076;2023-10-08T07:40:52;10.80;;;6.90;;
15112;SDS011;7657;50.140;7.076;2023-10-08T07:43:20;8.60;;;6.38;;
15112;SDS011;7657;50.140;7.076;2023-10-08T07:45:47;10.60;;;6.97;;
15112;SDS011;7657;50.140;7.076;2023-10-08T07:48:15;11.05;;;6.53;;
15112;SDS011;7657;50.140;7.076;2023-10-08T07:50:43;9.35;;;6.90;;
15112;SDS011;7657;50.140;7.076;2023-10-08T07:53:12;8.90;;;6.90;;
15112;SDS011;7657;50.140;7.076;2023-10-08T07:55:47;9.60;;;7.05;;
15112;SDS011;7657;50.140;7.076;2023-10-08T07:58:17;9.93;;;7.18;;
15112;SDS011;7657;50.140;7.076;2023-10-08T08:00:45;8.90;;;6.95;;
15112;SDS011;7657;50.140;7.076;2023-10-08T08:03:21;9.45;;;6.90;;
15112;SDS011;7657;50.140;7.076;2023-10-08T08:05:49;8.60;;;7.03;;
15112;SDS011;7657;50.140;7.076;2023-10-08T08:08:19;8.93;;;6.70;;
15112;SDS011;7657;50.140;7.076;2023-10-08T08:10:48;7.50;;;6.30;;
15112;SDS011;7657;50.140;7.076;2023-10-08T08:13:22;8.30;;;5.93;;
15112;SDS011;7657;50.140;7.076;2023-10-08T08:15:53;9.75;;;6.18;;
15112;SDS011;7657;50.140;7.076;2023-10-08T08:18:24;7.97;;;5.65;;
15112;SDS011;7657;50.140;7.076;2023-10-08T08:20:58;9.57;;;6.03;;
15112;SDS011;7657;50.140;7.076;2023-10-08T08:23:27;6.10;;;5.10;;
15112;SDS011;7657;50.140;7.076;2023-10-08T08:25:55;8.38;;;5.50;;
15112;SDS011;7657;50.140;7.076;2023-10-08T08:28:31;6.68;;;5.40;;
15112;SDS011;7657;50.140;7.076;2023-10-08T08:31:01;6.38;;;4.80;;
15112;SDS011;7657;50.140;7.076;2023-10-08T08:33:31;5.60;;;4.15;;
15112;SDS011;7657;50.140;7.076;2023-10-08T08:36:18;7.72;;;4.40;;
15112;SDS011;7657;50.140;7.076;2023-10-08T08:38:46;7.60;;;4.85;;
15112;SDS011;7657;50.140;7.076;2023-10-08T08:41:13;5.05;;;4.18;;
15112;SDS011;7657;50.140;7.076;2023-10-08T08:43:43;5.80;;;4.00;;
15112;SDS011;7657;50.140;7.076;2023-10-08T08:46:12;5.38;;;3.58;;
15112;SDS011;7657;50.140;7.076;2023-10-08T08:48:41;5.07;;;3.25;;
15112;SDS011;7657;50.140;7.076;2023-10-08T08:51:10;5.43;;;3.92;;
15112;SDS011;7657;50.140;7.076;2023-10-08T08:53:38;4.63;;;3.50;;
15112;SDS011;7657;50.140;7.076;2023-10-08T08:56:06;5.95;;;4.00;;
15112;SDS011;7657;50.140;7.076;2023-10-08T08:58:35;6.95;;;3.78;;
15112;SDS011;7657;50.140;7.076;2023-10-08T09:01:05;6.63;;;3.97;;
15112;SDS011;7657;50.140;7.076;2023-10-08T09:03:34;5.40;;;4.05;;
15112;SDS011;7657;50.140;7.076;2023-10-08T09:06:03;4.60;;;3.20;;
15112;SDS011;7657;50.140;7.076;2023-10-08T09:08:33;6.10;;;3.50;;
15112;SDS011;7657;50.140;7.076;2023-10-08T09:11:01;5.35;;;3.75;;
15112;SDS011;7657;50.140;7.076;2023-10-08T09:13:29;4.82;;;3.40;;
15112;SDS011;7657;50.140;7.076;2023-10-08T09:16:01;5.88;;;3.67;;
15112;SDS011;7657;50.140;7.076;2023-10-08T09:18:32;5.47;;;3.47;;
15112;SDS011;7657;50.140;7.076;2023-10-08T09:21:11;7.05;;;3.47;;
15112;SDS011;7657;50.140;7.076;2023-10-08T09:23:41;4.78;;;3.83;;
15112;SDS011;7657;50.140;7.076;2023-10-08T09:26:09;6.88;;;3.88;;
15112;SDS011;7657;50.140;7.076;2023-10-08T09:28:39;7.20;;;4.13;;
15112;SDS011;7657;50.140;7.076;2023-10-08T09:31:09;5.85;;;3.85;;
15112;SDS011;7657;50.140;7.076;2023-10-08T09:33:37;7.57;;;3.70;;
15112;SDS011;7657;50.140;7.076;2023-10-08T09:36:05;6.45;;;3.90;;
15112;SDS011;7657;50.140;7.076;2023-10-08T09:38:37;4.65;;;3.70;;
15112;SDS011;7657;50.140;7.076;2023-10-08T09:41:04;5.95;;;3.70;;
15112;SDS011;7657;50.140;7.076;2023-10-08T09:43:33;8.88;;;4.32;;
15112;SDS011;7657;50.140;7.076;2023-10-08T09:46:03;9.13;;;4.03;;
15112;SDS011;7657;50.140;7.076;2023-10-08T09:48:36;6.57;;;4.13;;
15112;SDS011;7657;50.140;7.076;2023-10-08T09:51:06;7.30;;;4.13;;
15112;SDS011;7657;50.140;7.076;2023-10-08T09:53:42;4.80;;;3.45;;
15112;SDS011;7657;50.140;7.076;2023-10-08T09:56:14;6.40;;;4.00;;
15112;SDS011;7657;50.140;7.076;2023-10-08T09:58:43;10.02;;;4.10;;
15112;SDS011;7657;50.140;7.076;2023-10-08T10:01:11;7.40;;;4.18;;
15112;SDS011;7657;50.140;7.076;2023-10-08T10:03:39;9.23;;;4.35;;
15112;SDS011;7657;50.140;7.076;2023-10-08T10:06:11;7.05;;;3.78;;
15112;SDS011;7657;50.140;7.076;2023-10-08T10:08:41;5.72;;;3.60;;
15112;SDS011;7657;50.140;7.076;2023-10-08T10:11:08;13.50;;;3.80;;
15112;SDS011;7657;50.140;7.076;2023-10-08T10:13:38;6.40;;;4.00;;
15112;SDS011;7657;50.140;7.076;2023-10-08T10:16:07;5.82;;;3.22;;
15112;SDS011;7657;50.140;7.076;2023-10-08T10:18:35;7.57;;;3.50;;
15112;SDS011;7657;50.140;7.076;2023-10-08T10:23:54;5.80;;;3.45;;
15112;SDS011;7657;50.140;7.076;2023-10-08T10:26:22;4.75;;;3.55;;
15112;SDS011;7657;50.140;7.076;2023-10-08T10:31:45;7.53;;;3.50;;
15112;SDS011;7657;50.140;7.076;2023-10-08T10:34:13;8.30;;;3.78;;
15112;SDS011;7657;50.140;7.076;2023-10-08T10:36:42;9.27;;;3.50;;
15112;SDS011;7657;50.140;7.076;2023-10-08T10:39:15;5.78;;;3.60;;
15112;SDS011;7657;50.140;7.076;2023-10-08T10:41:51;7.22;;;3.50;;
15112;SDS011;7657;50.140;7.076;2023-10-08T10:44:23;5.65;;;3.30;;
15112;SDS011;7657;50.140;7.076;2023-10-08T10:46:51;5.95;;;3.53;;
15112;SDS011;7657;50.140;7.076;2023-10-08T10:49:38;8.10;;;4.22;;
15112;SDS011;7657;50.140;7.076;2023-10-08T10:52:13;5.65;;;3.30;;
15112;SDS011;7657;50.140;7.076;2023-10-08T10:54:46;8.90;;;3.60;;
15112;SDS011;7657;50.140;7.076;2023-10-08T10:57:23;6.10;;;3.58;;
15112;SDS011;7657;50.140;7.076;2023-10-08T10:59:51;7.22;;;3.25;;
15112;SDS011;7657;50.140;7.076;2023-10-08T11:02:19;6.53;;;3.85;;
15112;SDS011;7657;50.140;7.076;2023-10-08T11:04:46;9.63;;;3.55;;
15112;SDS011;7657;50.140;7.076;2023-10-08T11:07:13;4.85;;;3.30;;
15112;SDS011;7657;50.140;7.076;2023-10-08T11:09:41;6.43;;;3.58;;
15112;SDS011;7657;50.140;7.076;2023-10-08T11:12:12;6.57;;;3.50;;
15112;SDS011;7657;50.140;7.076;2023-10-08T11:14:48;5.68;;;3.42;;
15112;SDS011;7657;50.140;7.076;2023-10-08T11:17:17;6.38;;;3.70;;
15112;SDS011;7657;50.140;7.076;2023-10-08T11:19:49;6.20;;;3.75;;
15112;SDS011;7657;50.140;7.076;2023-10-08T11:22:16;5.65;;;3.60;;
15112;SDS011;7657;50.140;7.076;2023-10-08T11:24:48;9.13;;;3.95;;
15112;SDS011;7657;50.140;7.076;2023-10-08T11:27:20;6.03;;;3.50;;
15112;SDS011;7657;50.140;7.076;2023-10-08T11:29:54;7.75;;;3.40;;
15112;SDS011;7657;50.140;7.076;2023-10-08T11:32:23;5.22;;;3.42;;
15112;SDS011;7657;50.140;7.076;2023-10-08T11:34:54;6.65;;;3.53;;
15112;SDS011;7657;50.140;7.076;2023-10-08T11:37:27;6.88;;;3.40;;
15112;SDS011;7657;50.140;7.076;2023-10-08T11:39:54;5.70;;;3.42;;
15112;SDS011;7657;50.140;7.076;2023-10-08T11:42:24;7.70;;;3.40;;
15112;SDS011;7657;50.140;7.076;2023-10-08T11:45:09;5.38;;;3.03;;
15112;SDS011;7657;50.140;7.076;2023-10-08T11:47:49;6.63;;;3.20;;
15112;SDS011;7657;50.140;7.076;2023-10-08T11:50:22;6.43;;;3.72;;
15112;SDS011;7657;50.140;7.076;2023-10-08T11:52:55;6.13;;;3.13;;
15112;SDS011;7657;50.140;7.076;2023-10-08T11:55:26;7.35;;;3.40;;
15112;SDS011;7657;50.140;7.076;2023-10-08T11:57:55;7.68;;;3.30;;
15112;SDS011;7657;50.140;7.076;2023-10-08T12:00:22;6.95;;;3.58;;
15112;SDS011;7657;50.140;7.076;2023-10-08T12:02:51;7.47;;;3.05;;
15112;SDS011;7657;50.140;7.076;2023-10-08T12:05:19;5.20;;;3.33;;
15112;SDS011;7657;50.140;7.076;2023-10-08T12:07:48;7.82;;;3.13;;
15112;SDS011;7657;50.140;7.076;2023-10-08T12:10:17;7.28;;;3.40;;
15112;SDS011;7657;50.140;7.076;2023-10-08T12:12:47;6.70;;;3.33;;
15112;SDS011;7657;50.140;7.076;2023-10-08T12:15:18;10.43;;;3.47;;
15112;SDS011;7657;50.140;7.076;2023-10-08T12:17:46;5.13;;;3.20;;
15112;SDS011;7657;50.140;7.076;2023-10-08T12:20:34;5.65;;;3.47;;
15112;SDS011;7657;50.140;7.076;2023-10-08T12:23:03;7.38;;;3.42;;
15112;SDS011;7657;50.140;7.076;2023-10-08T12:25:31;7.15;;;2.92;;
15112;SDS011;7657;50.140;7.076;2023-10-08T12:27:58;6.97;;;3.00;;
15112;SDS011;7657;50.140;7.076;2023-10-08T12:30:30;6.95;;;3.28;;
15112;SDS011;7657;50.140;7.076;2023-10-08T12:33:00;6.03;;;3.28;;
15112;SDS011;7657;50.140;7.076;2023-10-08T12:35:27;8.27;;;3.70;;
15112;SDS011;7657;50.140;7.076;2023-10-08T12:37:55;5.68;;;3.30;;
15112;SDS011;7657;50.140;7.076;2023-10-08T12:40:22;8.80;;;3.80;;
15112;SDS011;7657;50.140;7.076;2023-10-08T12:42:50;7.40;;;2.83;;
15112;SDS011;7657;50.140;7.076;2023-10-08T12:45:17;10.10;;;3.90;;
15112;SDS011;7657;50.140;7.076;2023-10-08T12:47:48;6.80;;;3.30;;
15112;SDS011;7657;50.140;7.076;2023-10-08T12:50:16;5.97;;;3.00;;
15112;SDS011;7657;50.140;7.076;2023-10-08T12:52:48;5.30;;;2.95;;
15112;SDS011;7657;50.140;7.076;2023-10-08T12:55:20;4.30;;;3.17;;
15112;SDS011;7657;50.140;7.076;2023-10-08T12:57:50;6.28;;;3.28;;
15112;SDS011;7657;50.140;7.076;2023-10-08T13:00:21;8.65;;;3.90;;
15112;SDS011;7657;50.140;7.076;2023-10-08T13:02:51;7.40;;;3.53;;
15112;SDS011;7657;50.140;7.076;2023-10-08T13:05:20;8.00;;;3.42;;
15112;SDS011;7657;50.140;7.076;2023-10-08T13:07:53;7.40;;;3.35;;
15112;SDS011;7657;50.140;7.076;2023-10-08T13:10:21;6.40;;;3.60;;
15112;SDS011;7657;50.140;7.076;2023-10-08T13:12:49;6.65;;;2.95;;
15112;SDS011;7657;50.140;7.076;2023-10-08T13:15:16;5.30;;;3.33;;
15112;SDS011;7657;50.140;7.076;2023-10-08T13:17:43;5.55;;;3.25;;
15112;SDS011;7657;50.140;7.076;2023-10-08T13:20:12;6.50;;;3.17;;
15112;SDS011;7657;50.140;7.076;2023-10-08T13:22:42;5.10;;;3.22;;
15112;SDS011;7657;50.140;7.076;2023-10-08T13:25:09;6.40;;;2.95;;
15112;SDS011;7657;50.140;7.076;2023-10-08T13:27:37;7.80;;;3.30;;
15112;SDS011;7657;50.140;7.076;2023-10-08T13:30:06;7.55;;;3.45;;
15112;SDS011;7657;50.140;7.076;2023-10-08T13:32:34;5.45;;;3.13;;
15112;SDS011;7657;50.140;7.076;2023-10-08T13:35:02;6.55;;;3.13;;
15112;SDS011;7657;50.140;7.076;2023-10-08T13:37:33;5.75;;;3.25;;
15112;SDS011;7657;50.140;7.076;2023-10-08T13:40:01;5.63;;;3.00;;
15112;SDS011;7657;50.140;7.076;2023-10-08T13:42:28;6.65;;;3.53;;
15112;SDS011;7657;50.140;7.076;2023-10-08T13:44:55;6.25;;;3.22;;
15112;SDS011;7657;50.140;7.076;2023-10-08T13:47:24;5.82;;;3.38;;
15112;SDS011;7657;50.140;7.076;2023-10-08T13:49:53;4.95;;;3.13;;
15112;SDS011;7657;50.140;7.076;2023-10-08T13:52:22;9.05;;;3.55;;
15112;SDS011;7657;50.140;7.076;2023-10-08T13:54:52;5.05;;;3.10;;
15112;SDS011;7657;50.140;7.076;2023-10-08T13:57:20;8.40;;;3.45;;
15112;SDS011;7657;50.140;7.076;2023-10-08T13:59:47;5.07;;;3.22;;
15112;SDS011;7657;50.140;7.076;2023-10-08T14:02:14;4.80;;;3.10;;
15112;SDS011;7657;50.140;7.076;2023-10-08T14:04:44;5.53;;;3.33;;
15112;SDS011;7657;50.140;7.076;2023-10-08T14:07:15;5.70;;;3.30;;
15112;SDS011;7657;50.140;7.076;2023-10-08T14:09:43;6.35;;;3.30;;
15112;SDS011;7657;50.140;7.076;2023-10-08T14:12:12;4.15;;;3.10;;
15112;SDS011;7657;50.140;7.076;2023-10-08T14:14:40;6.72;;;2.97;;
15112;SDS011;7657;50.140;7.076;2023-10-08T14:17:09;7.05;;;3.47;;
15112;SDS011;7657;50.140;7.076;2023-10-08T14:19:40;5.03;;;3.30;;
15112;SDS011;7657;50.140;7.076;2023-10-08T14:22:11;7.32;;;3.35;;
15112;SDS011;7657;50.140;7.076;2023-10-08T14:24:40;6.95;;;3.33;;
15112;SDS011;7657;50.140;7.076;2023-10-08T14:27:07;9.13;;;3.15;;
15112;SDS011;7657;50.140;7.076;2023-10-08T14:29:37;4.72;;;3.20;;
15112;SDS011;7657;50.140;7.076;2023-10-08T14:32:06;5.82;;;3.22;;
15112;SDS011;7657;50.140;7.076;2023-10-08T14:34:35;6.63;;;3.25;;
15112;SDS011;7657;50.140;7.076;2023-10-08T14:37:19;5.97;;;3.40;;
15112;SDS011;7657;50.140;7.076;2023-10-08T14:40:04;5.00;;;3.22;;
15112;SDS011;7657;50.140;7.076;2023-10-08T14:42:49;6.47;;;2.97;;
15112;SDS011;7657;50.140;7.076;2023-10-08T14:45:23;6.72;;;3.08;;
15112;SDS011;7657;50.140;7.076;2023-10-08T14:47:54;7.43;;;3.85;;
15112;SDS011;7657;50.140;7.076;2023-10-08T14:50:22;4.65;;;2.92;;
15112;SDS011;7657;50.140;7.076;2023-10-08T14:52:52;7.00;;;3.45;;
15112;SDS011;7657;50.140;7.076;2023-10-08T14:55:20;5.78;;;3.08;;
15112;SDS011;7657;50.140;7.076;2023-10-08T14:57:48;6.07;;;3.15;;
15112;SDS011;7657;50.140;7.076;2023-10-08T15:00:18;5.90;;;3.38;;
15112;SDS011;7657;50.140;7.076;2023-10-08T15:02:51;5.78;;;3.50;;
15112;SDS011;7657;50.140;7.076;2023-10-08T15:05:19;7.55;;;3.10;;
15112;SDS011;7657;50.140;7.076;2023-10-08T15:07:47;8.75;;;3.53;;
15112;SDS011;7657;50.140;7.076;2023-10-08T15:10:14;6.18;;;3.83;;
15112;SDS011;7657;50.140;7.076;2023-10-08T15:12:42;7.93;;;3.38;;
15112;SDS011;7657;50.140;7.076;2023-10-08T15:15:09;7.55;;;3.42;;
15112;SDS011;7657;50.140;7.076;2023-10-08T15:17:39;6.82;;;3.58;;
15112;SDS011;7657;50.140;7.076;2023-10-08T15:20:08;5.93;;;3.42;;
15112;SDS011;7657;50.140;7.076;2023-10-08T15:22:39;6.57;;;2.95;;
15112;SDS011;7657;50.140;7.076;2023-10-08T15:25:07;8.52;;;3.10;;
15112;SDS011;7657;50.140;7.076;2023-10-08T15:27:35;8.95;;;3.20;;
15112;SDS011;7657;50.140;7.076;2023-10-08T15:30:04;7.20;;;3.42;;